Aeroporto :
LOGIN :

Iscrizione | Disclaimer

   EN    FR    IT 

 










Sommario :    VFR   VFR Marginale   IFR   IFR Intensivo   IFR Molto Intensivo
Visibilità : 
Base nubi : 
>= 8 km
>= 3000ft
5 / 8 km
1000 / 3000 ft
1500m / 5 km
500 / 1000 ft
800 / 1500m
200 / 500 ft
< 800m
< 200 ft
Simboli :   Temporali  Nebbia  Neve Forte  Precipitazioni Forti  Vento > 20 kt
SIGMETs :   Varie  Temporali  Ghiacco  Turbolenza  Onda orograficha  Ceneri Vulcaniche







- Altitudine del aeroporto : 659 ft
- Codice IATA : LGG


EBLG - Liège

ULTIMO METAR :
  • 180620Z 17007KT 9999 FEW008 BKN035 16/14 Q1014 NOSIG

METARs OBSOLETI :
  • 180550Z 17006KT 9999 FEW008 16/16 Q1014 NOSIG
  • 180520Z 15006KT 9999 FEW008 16/13 Q1014 NOSIG
  • 180450Z 14008KT 6000 FEW008 16/11 Q1013 NOSIG
  • 180420Z 13005KT 9999 FEW008 16/14 Q1013 NOSIG
  • 180350Z 25003KT 6000 -RA FEW003 SCT018 SCT040 16/15 Q1014 RESHRA BECMG 8000 -RA

TAF TAF EBLG
Valido dal 18 a 06 ore il 19 a 12 ore UTC


180500Z 1806/1912 24006KT 7000 SCT008 BKN016
TEMPO 1806/1808 4000 BR BKN006
PROB30
TEMPO 1806/1807 BKN003
TEMPO 1807/1811 4000 SHRA SCT008 BKN012
PROB30
TEMPO 1808/1812 2500 TSRA
PROB30
TEMPO 1910/1912 4000 RA
Nessun NOTAM noto per questo aeroporto.



MetMap, La meteo Aeronautica in un colpo d'occhio ! - Copyright ORBIFLY Dicembre 2007 - Disclaimer

ORBIFLY MET'MAP TEAM :

Programmazione e sviluppo : Alexandra Zaïnal
Concezione e sviluppo : Baudouin d'Aumeries
Co-Programmazione e sviluppo : Marc-Olivier Méhu
Supporto tecnico e logistico : Manuel Goepfert
Aiuto per la traduzione : Arnaldo La Scala

Contatto : metmap@orbifly.com




FONTI E CREDITI :

   NOAA